Hills, Texas
Current Conditions -  °F | °C
As of 12:35 PM on Tuesday 27 Jan 2015 (Local Time) from K3T5 Reporting Station
Clear Clear  
Wind Chill: 73°   Ceiling: Unl
Heat Index: 73°   Visibility: 10mi
Dew Point: 45°   Wind: 5mph
Humidity: 37%   Direction: 350°N
Pressure: 30.15"   Gusts: NA
Location:  30.1897°N, 97.1182°W
Report Text: K3T5 271835Z AUTO 35004KT 10SM CLR 23/07 A3015 RMK AO2 T02280073
Loading
Personal Weather Stations






























Interactive Weather Map New forecast layout! Learn more

10-Day Weather Forecast

Advertisements
Track Severe Weather on mobile